createdAt,value
2016-08-23T00:00:07.096Z,1015.77
2016-08-23T00:01:07.077Z,1015.78
2016-08-23T00:02:07.056Z,1015.76
2016-08-23T00:03:07.034Z,1015.8
2016-08-23T00:04:07.014Z,1015.8
2016-08-23T00:05:06.995Z,1015.79
2016-08-23T00:06:06.979Z,1015.77
2016-08-23T00:07:06.953Z,1015.77
2016-08-23T00:08:06.932Z,1015.77
2016-08-23T00:09:06.911Z,1015.82
2016-08-23T00:10:06.891Z,1015.82
2016-08-23T00:11:06.870Z,1015.86
2016-08-23T00:12:06.848Z,1015.87
2016-08-23T00:13:06.829Z,1015.88
2016-08-23T00:14:06.807Z,1015.85
2016-08-23T00:15:06.786Z,1015.85
2016-08-23T00:16:06.767Z,1015.94
2016-08-23T00:17:06.746Z,1015.89
2016-08-23T00:18:06.726Z,1015.86
2016-08-23T00:19:06.705Z,1015.91
2016-08-23T00:20:06.684Z,1015.88
2016-08-23T00:21:06.664Z,1015.9
2016-08-23T00:22:06.643Z,1015.83
2016-08-23T00:23:06.622Z,1015.86
2016-08-23T00:24:06.603Z,1015.89
2016-08-23T00:25:06.581Z,1015.93
2016-08-23T00:26:06.559Z,1015.88
2016-08-23T00:27:06.540Z,1015.9
2016-08-23T00:28:06.519Z,1015.89
2016-08-23T00:29:06.498Z,1015.92
2016-08-23T00:30:06.479Z,1015.89
2016-08-23T00:31:06.458Z,1015.86
2016-08-23T00:32:06.436Z,1015.86
2016-08-23T00:33:06.415Z,1015.87
2016-08-23T00:34:06.394Z,1015.9
2016-08-23T00:35:06.373Z,1015.83
2016-08-23T00:36:06.358Z,1015.85
2016-08-23T00:37:06.331Z,1015.85
2016-08-23T00:38:06.311Z,1015.84
2016-08-23T00:39:06.291Z,1015.85
2016-08-23T00:40:06.268Z,1015.88
2016-08-23T00:41:06.248Z,1015.84
2016-08-23T00:42:06.228Z,1015.83
2016-08-23T00:43:06.205Z,1015.83
2016-08-23T00:44:06.186Z,1015.85
2016-08-23T00:45:06.164Z,1015.8
2016-08-23T00:46:06.144Z,1015.87
2016-08-23T00:47:06.123Z,1015.88
2016-08-23T00:48:06.107Z,1015.89
2016-08-23T00:49:06.081Z,1015.91
2016-08-23T00:50:06.061Z,1015.92
2016-08-23T00:51:06.040Z,1015.93
2016-08-23T00:52:06.019Z,1015.98
2016-08-23T00:53:05.999Z,1015.93
2016-08-23T00:54:05.976Z,1015.98
2016-08-23T00:55:05.955Z,1015.98
2016-08-23T00:56:05.935Z,1015.95
2016-08-23T00:57:05.914Z,1015.97
2016-08-23T00:58:05.892Z,1015.95
2016-08-23T00:59:05.871Z,1015.99
2016-08-23T01:00:05.851Z,1015.97
2016-08-23T01:01:05.830Z,1015.98
2016-08-23T01:02:05.808Z,1015.98
2016-08-23T01:03:05.786Z,1015.97
2016-08-23T01:04:05.767Z,1015.98
2016-08-23T01:05:05.745Z,1015.98
2016-08-23T01:06:05.724Z,1015.99
2016-08-23T01:07:05.703Z,1016
2016-08-23T01:08:05.682Z,1016
2016-08-23T01:09:05.660Z,1015.99
2016-08-23T01:10:05.641Z,1016.01
2016-08-23T01:11:05.620Z,1015.99
2016-08-23T01:12:05.600Z,1016
2016-08-23T01:13:05.577Z,1015.98
2016-08-23T01:14:05.557Z,1016.01
2016-08-23T01:15:05.537Z,1015.99
2016-08-23T01:16:05.515Z,1016
2016-08-23T01:17:05.493Z,1016.04
2016-08-23T01:18:05.472Z,1016.03
2016-08-23T01:19:05.453Z,1016.04
2016-08-23T01:20:05.430Z,1016.02
2016-08-23T01:21:05.409Z,1016.03
2016-08-23T01:22:05.389Z,1016.05
2016-08-23T01:23:05.367Z,1016.02
2016-08-23T01:24:05.345Z,1016.04
2016-08-23T01:25:05.325Z,1016.06
2016-08-23T01:26:05.303Z,1016.07
2016-08-23T01:27:05.295Z,1016.05
2016-08-23T01:28:05.262Z,1016.05
2016-08-23T01:29:05.240Z,1016.07
2016-08-23T01:30:05.219Z,1016.07
2016-08-23T01:31:05.198Z,1016.05
2016-08-23T01:32:05.177Z,1016.05
2016-08-23T01:33:05.155Z,1016.04
2016-08-23T01:34:05.134Z,1016.02
2016-08-23T01:35:05.113Z,1016.03
2016-08-23T01:36:05.093Z,1016.05
2016-08-23T01:37:05.071Z,1016.01
2016-08-23T01:38:05.049Z,1016.02
2016-08-23T01:39:05.030Z,1016.03
2016-08-23T01:40:05.009Z,1016.01
2016-08-23T01:41:04.986Z,1016.06
2016-08-23T01:42:04.965Z,1016
2016-08-23T01:43:04.945Z,1016.03
2016-08-23T01:44:04.923Z,1016.04
2016-08-23T01:45:04.902Z,1016.03
2016-08-23T01:46:04.880Z,1016.02
2016-08-23T01:47:04.859Z,1016.04
2016-08-23T01:48:04.839Z,1016.01
2016-08-23T01:49:04.816Z,1016.01
2016-08-23T01:50:04.797Z,1016
2016-08-23T01:51:04.774Z,1016.03
2016-08-23T01:52:04.753Z,1016.03
2016-08-23T01:53:04.731Z,1016.04
2016-08-23T01:54:04.710Z,1016.04
2016-08-23T01:55:04.689Z,1016.02
2016-08-23T01:56:04.669Z,1016.04
2016-08-23T01:57:04.649Z,1016
2016-08-23T01:58:04.626Z,1016.01
2016-08-23T01:59:04.606Z,1016.01
2016-08-23T02:00:04.584Z,1016.03
2016-08-23T02:01:04.564Z,1015.99
2016-08-23T02:02:04.541Z,1016.02
2016-08-23T02:03:04.522Z,1016.02
2016-08-23T02:04:04.499Z,1016.05
2016-08-23T02:05:04.479Z,1016.03
2016-08-23T02:06:04.456Z,1016.01
2016-08-23T02:07:04.434Z,1016.02
2016-08-23T02:08:04.413Z,1016.02
2016-08-23T02:09:04.392Z,1016.05
2016-08-23T02:10:04.372Z,1016.06
2016-08-23T02:11:04.350Z,1016.04
2016-08-23T02:12:04.328Z,1016.05
2016-08-23T02:13:04.307Z,1016.03
2016-08-23T02:14:04.286Z,1016.03
2016-08-23T02:15:04.263Z,1016.05
2016-08-23T02:16:04.250Z,1016.04
2016-08-23T02:17:04.222Z,1016.04
2016-08-23T02:18:04.200Z,1016.01
2016-08-23T02:19:04.182Z,1015.99
2016-08-23T02:20:04.160Z,1016.01
2016-08-23T02:21:04.138Z,1015.99
2016-08-23T02:22:04.117Z,1016.02
2016-08-23T02:23:04.094Z,1015.98
2016-08-23T02:24:04.074Z,1015.99
2016-08-23T02:25:04.053Z,1015.99
2016-08-23T02:26:04.030Z,1015.94
2016-08-23T02:27:04.010Z,1015.96
2016-08-23T02:28:03.988Z,1015.95
2016-08-23T02:29:03.966Z,1015.99
2016-08-23T02:30:03.946Z,1015.98
2016-08-23T02:31:03.924Z,1016.01
2016-08-23T02:32:03.904Z,1015.98
2016-08-23T02:33:03.881Z,1016.01
2016-08-23T02:34:03.859Z,1016.03
2016-08-23T02:35:03.839Z,1016.04
2016-08-23T02:36:03.819Z,1016.04
2016-08-23T02:37:03.796Z,1016.05
2016-08-23T02:38:03.774Z,1016.05
2016-08-23T02:39:03.755Z,1016.02
2016-08-23T02:40:03.732Z,1016.04
2016-08-23T02:41:03.718Z,1016.02
2016-08-23T02:42:03.689Z,1016.05
2016-08-23T02:43:03.669Z,1016.05
2016-08-23T02:44:03.646Z,1016.05
2016-08-23T02:45:03.625Z,1016.06
2016-08-23T02:46:03.604Z,1016.08
2016-08-23T02:47:03.583Z,1016.07
2016-08-23T02:48:03.561Z,1016.07
2016-08-23T02:49:03.540Z,1016.05
2016-08-23T02:50:03.520Z,1016.1
2016-08-23T02:51:03.497Z,1016.13
2016-08-23T02:52:03.475Z,1016.15
2016-08-23T02:53:03.456Z,1016.15
2016-08-23T02:54:03.433Z,1016.16
2016-08-23T02:55:03.412Z,1016.15
2016-08-23T02:56:03.392Z,1016.15
2016-08-23T02:57:03.370Z,1016.19
2016-08-23T02:58:03.349Z,1016.19
2016-08-23T02:59:03.327Z,1016.19
2016-08-23T03:00:03.306Z,1016.25
2016-08-23T03:01:03.284Z,1016.24
2016-08-23T03:02:03.262Z,1016.26
2016-08-23T03:03:03.242Z,1016.22
2016-08-23T03:04:03.219Z,1016.22
2016-08-23T03:05:03.198Z,1016.18
2016-08-23T03:06:03.177Z,1016.23
2016-08-23T03:07:03.155Z,1016.27
2016-08-23T03:08:03.134Z,1016.24
2016-08-23T03:09:03.121Z,1016.21
2016-08-23T03:10:03.091Z,1016.22
2016-08-23T03:11:03.070Z,1016.21
2016-08-23T03:12:03.050Z,1016.22
2016-08-23T03:13:03.027Z,1016.22
2016-08-23T03:14:03.005Z,1016.2
2016-08-23T03:15:02.990Z,1016.23
2016-08-23T03:16:02.964Z,1016.2
2016-08-23T03:17:02.941Z,1016.24
2016-08-23T03:18:02.920Z,1016.21
2016-08-23T03:19:02.899Z,1016.2
2016-08-23T03:20:02.878Z,1016.2
2016-08-23T03:21:02.857Z,1016.23
2016-08-23T03:22:02.835Z,1016.17
2016-08-23T03:23:02.814Z,1016.15
2016-08-23T03:24:02.793Z,1016.19
2016-08-23T03:25:02.771Z,1016.17
2016-08-23T03:26:02.749Z,1016.17
2016-08-23T03:27:02.729Z,1016.16
2016-08-23T03:28:02.706Z,1016.18
2016-08-23T03:29:02.684Z,1016.14
2016-08-23T03:30:02.663Z,1016.13
2016-08-23T03:31:02.641Z,1016.21
2016-08-23T03:32:02.620Z,1016.14
2016-08-23T03:33:02.600Z,1016.16
2016-08-23T03:34:02.578Z,1016.15
2016-08-23T03:35:02.556Z,1016.13
2016-08-23T03:36:02.536Z,1016.13
2016-08-23T03:37:02.513Z,1016.13
2016-08-23T03:38:02.491Z,1016.1
2016-08-23T03:39:02.471Z,1016.1
2016-08-23T03:40:02.450Z,1016.11
2016-08-23T03:41:02.427Z,1016.13
2016-08-23T03:42:02.405Z,1016.09
2016-08-23T03:43:02.385Z,1016.09
2016-08-23T03:44:02.367Z,1016.1
2016-08-23T03:45:02.342Z,1016.12
2016-08-23T03:46:02.332Z,1016.12
2016-08-23T03:47:02.297Z,1016.14
2016-08-23T03:48:02.275Z,1016.13
2016-08-23T03:49:02.256Z,1016.13
2016-08-23T03:50:02.232Z,1016.17
2016-08-23T03:51:02.212Z,1016.2
2016-08-23T03:52:02.190Z,1016.16
2016-08-23T03:53:02.167Z,1016.17
2016-08-23T03:54:02.146Z,1016.25
2016-08-23T03:55:02.125Z,1016.24
2016-08-23T03:56:02.103Z,1016.24
2016-08-23T03:57:02.082Z,1016.24
2016-08-23T03:58:02.059Z,1016.22
2016-08-23T03:59:02.039Z,1016.23
2016-08-23T04:00:02.017Z,1016.23
2016-08-23T04:01:01.994Z,1016.21
2016-08-23T04:02:01.973Z,1016.26
2016-08-23T04:03:01.950Z,1016.23
2016-08-23T04:04:01.929Z,1016.25
2016-08-23T04:05:01.906Z,1016.28
2016-08-23T04:06:01.885Z,1016.23
2016-08-23T04:07:01.865Z,1016.22
2016-08-23T04:08:01.842Z,1016.22
2016-08-23T04:09:01.820Z,1016.21
2016-08-23T04:10:01.801Z,1016.22
2016-08-23T04:11:01.778Z,1016.21
2016-08-23T04:12:01.756Z,1016.21
2016-08-23T04:13:01.735Z,1016.21
2016-08-23T04:14:01.713Z,1016.2
2016-08-23T04:15:01.690Z,1016.23
2016-08-23T04:16:01.670Z,1016.19
2016-08-23T04:17:01.648Z,1016.19
2016-08-23T04:18:01.627Z,1016.21
2016-08-23T04:19:01.605Z,1016.21
2016-08-23T04:20:01.584Z,1016.2
2016-08-23T04:21:01.562Z,1016.19
2016-08-23T04:22:01.542Z,1016.17
2016-08-23T04:23:01.518Z,1016.21
2016-08-23T04:24:01.496Z,1016.19
2016-08-23T04:25:01.476Z,1016.17
2016-08-23T04:26:01.454Z,1016.23
2016-08-23T04:27:01.433Z,1016.24
2016-08-23T04:28:01.411Z,1016.23
2016-08-23T04:29:01.388Z,1016.21
2016-08-23T04:30:01.366Z,1016.21
2016-08-23T04:31:01.344Z,1016.18
2016-08-23T04:32:01.323Z,1016.17
2016-08-23T04:33:01.303Z,1016.21
2016-08-23T04:34:01.281Z,1016.23
2016-08-23T04:35:01.260Z,1016.23
2016-08-23T04:36:01.246Z,1016.26
2016-08-23T04:37:01.215Z,1016.26
2016-08-23T04:38:01.198Z,1016.26
2016-08-23T04:39:01.174Z,1016.31
2016-08-23T04:40:01.151Z,1016.31
2016-08-23T04:41:01.129Z,1016.32
2016-08-23T04:42:01.107Z,1016.34
2016-08-23T04:43:01.089Z,1016.34
2016-08-23T04:44:01.066Z,1016.35
2016-08-23T04:45:01.042Z,1016.36
2016-08-23T04:46:01.022Z,1016.34
2016-08-23T04:47:01.002Z,1016.32
2016-08-23T04:48:00.980Z,1016.35
2016-08-23T04:49:00.957Z,1016.32
2016-08-23T04:50:00.937Z,1016.35
2016-08-23T04:51:00.914Z,1016.34
2016-08-23T04:52:00.892Z,1016.35
2016-08-23T04:53:00.876Z,1016.34
2016-08-23T04:54:00.851Z,1016.29
2016-08-23T04:55:00.829Z,1016.3
2016-08-23T04:56:00.808Z,1016.3
2016-08-23T04:57:00.787Z,1016.28
2016-08-23T04:58:00.766Z,1016.33
2016-08-23T04:59:00.742Z,1016.32
2016-08-23T05:00:00.722Z,1016.34
2016-08-23T05:01:00.701Z,1016.29
2016-08-23T05:02:00.679Z,1016.34
2016-08-23T05:03:00.657Z,1016.35
2016-08-23T05:04:00.636Z,1016.35
2016-08-23T05:05:00.615Z,1016.39
2016-08-23T05:06:00.594Z,1016.36
2016-08-23T05:07:00.573Z,1016.42
2016-08-23T05:08:00.552Z,1016.41
2016-08-23T05:09:00.531Z,1016.38
2016-08-23T05:10:00.510Z,1016.39
2016-08-23T05:11:00.488Z,1016.45
2016-08-23T05:12:00.467Z,1016.38
2016-08-23T05:13:00.447Z,1016.44
2016-08-23T05:14:00.424Z,1016.49
2016-08-23T05:15:00.403Z,1016.48
2016-08-23T05:16:00.427Z,1016.48
2016-08-23T05:17:00.408Z,1016.5
2016-08-23T05:18:00.339Z,1016.48
2016-08-23T05:19:00.318Z,1016.43
2016-08-23T05:20:00.298Z,1016.46
2016-08-23T05:21:00.274Z,1016.45
2016-08-23T05:22:00.255Z,1016.45
2016-08-23T05:23:00.234Z,1016.47
2016-08-23T05:24:00.212Z,1016.49
2016-08-23T05:25:00.191Z,1016.47
2016-08-23T05:26:00.171Z,1016.51
2016-08-23T05:27:00.151Z,1016.49
2016-08-23T05:28:00.126Z,1016.52
2016-08-23T05:29:00.107Z,1016.49
2016-08-23T05:30:00.085Z,1016.55
2016-08-23T05:31:00.065Z,1016.49
2016-08-23T05:32:00.045Z,1016.49
2016-08-23T05:33:00.023Z,1016.5
2016-08-23T05:34:00.003Z,1016.46
2016-08-23T05:34:59.981Z,1016.48
2016-08-23T05:35:59.959Z,1016.54
2016-08-23T05:36:59.939Z,1016.55
2016-08-23T05:37:59.971Z,1016.56
2016-08-23T05:38:59.948Z,1016.57
2016-08-23T05:39:59.927Z,1016.58
2016-08-23T05:40:59.856Z,1016.59
2016-08-23T05:41:59.836Z,1016.57
2016-08-23T05:42:59.813Z,1016.61
2016-08-23T05:43:59.793Z,1016.59
2016-08-23T05:44:59.772Z,1016.61
2016-08-23T05:45:59.753Z,1016.64
2016-08-23T05:46:59.731Z,1016.66
2016-08-23T05:47:59.710Z,1016.69
2016-08-23T05:48:59.690Z,1016.69
2016-08-23T05:49:59.670Z,1016.66
2016-08-23T05:50:59.648Z,1016.67
2016-08-23T05:51:59.627Z,1016.66
2016-08-23T05:52:59.607Z,1016.66
2016-08-23T05:53:59.587Z,1016.69
2016-08-23T05:54:59.565Z,1016.7
2016-08-23T05:55:59.547Z,1016.69
2016-08-23T05:56:59.526Z,1016.69
2016-08-23T05:57:59.555Z,1016.65
2016-08-23T05:58:59.485Z,1016.66
2016-08-23T05:59:59.464Z,1016.63
2016-08-23T06:00:59.442Z,1016.66
2016-08-23T06:01:59.423Z,1016.66
2016-08-23T06:02:59.403Z,1016.65
2016-08-23T06:03:59.383Z,1016.6
2016-08-23T06:04:59.362Z,1016.59
2016-08-23T06:05:59.342Z,1016.57
2016-08-23T06:06:59.322Z,1016.59
2016-08-23T06:07:59.303Z,1016.61
2016-08-23T06:08:59.282Z,1016.61
2016-08-23T06:09:59.260Z,1016.65
2016-08-23T06:10:59.240Z,1016.58
2016-08-23T06:11:59.219Z,1016.58
2016-08-23T06:12:59.246Z,1016.59
2016-08-23T06:13:59.181Z,1016.62
2016-08-23T06:14:59.160Z,1016.59
2016-08-23T06:15:59.139Z,1016.62
2016-08-23T06:16:59.120Z,1016.6
2016-08-23T06:17:59.113Z,1016.6
2016-08-23T06:18:59.081Z,1016.64
2016-08-23T06:19:59.060Z,1016.65
2016-08-23T06:20:59.040Z,1016.63
2016-08-23T06:21:59.022Z,1016.64
2016-08-23T06:22:59.055Z,1016.64
2016-08-23T06:23:58.982Z,1016.67
2016-08-23T06:24:58.963Z,1016.67
2016-08-23T06:25:58.967Z,1016.71
2016-08-23T06:26:58.924Z,1016.7
2016-08-23T06:27:59.125Z,1016.72
2016-08-23T06:28:58.902Z,1016.74
2016-08-23T06:29:58.871Z,1016.76
2016-08-23T06:30:58.879Z,1016.77
2016-08-23T06:31:58.860Z,1016.75
2016-08-23T06:32:58.817Z,1016.75
2016-08-23T06:33:58.798Z,1016.76
2016-08-23T06:34:58.782Z,1016.78
2016-08-23T06:35:58.769Z,1016.74
2016-08-23T06:36:58.748Z,1016.77
2016-08-23T06:37:58.731Z,1016.76
2016-08-23T06:38:58.716Z,1016.77
2016-08-23T06:39:58.701Z,1016.74
2016-08-23T06:40:58.682Z,1016.79
2016-08-23T06:41:58.669Z,1016.78
2016-08-23T06:42:58.652Z,1016.79
2016-08-23T06:43:58.637Z,1016.8
2016-08-23T06:44:58.667Z,1016.81
2016-08-23T06:45:58.785Z,1016.8
2016-08-23T06:46:58.595Z,1016.77
2016-08-23T06:47:58.575Z,1016.77
2016-08-23T06:48:58.560Z,1016.8
2016-08-23T06:49:58.544Z,1016.82
2016-08-23T06:50:58.532Z,1016.79
2016-08-23T06:51:58.516Z,1016.78
2016-08-23T06:52:58.500Z,1016.83
2016-08-23T06:53:58.495Z,1016.85
2016-08-23T06:54:58.470Z,1016.84
2016-08-23T06:55:58.458Z,1016.84
2016-08-23T06:56:58.505Z,1016.86
2016-08-23T06:57:58.424Z,1016.79
2016-08-23T06:58:58.409Z,1016.78
2016-08-23T06:59:58.392Z,1016.79
2016-08-23T07:00:58.378Z,1016.8
2016-08-23T07:01:58.473Z,1016.85
2016-08-23T07:02:58.350Z,1016.85
2016-08-23T07:03:58.333Z,1016.85
2016-08-23T07:04:58.580Z,1016.85
2016-08-23T07:05:58.304Z,1016.8
2016-08-23T07:06:58.318Z,1016.8
2016-08-23T07:07:58.280Z,1016.82
2016-08-23T07:08:58.297Z,1016.86
2016-08-23T07:09:58.304Z,1016.82
2016-08-23T07:10:58.231Z,1016.87
2016-08-23T07:11:58.216Z,1016.86
2016-08-23T07:12:58.385Z,1016.88
2016-08-23T07:13:58.463Z,1016.9
2016-08-23T07:14:58.346Z,1016.92
2016-08-23T07:15:58.407Z,1016.92
2016-08-23T07:16:58.393Z,1016.91
2016-08-23T07:17:58.295Z,1016.93
2016-08-23T07:18:58.468Z,1016.93
2016-08-23T07:19:58.293Z,1016.95
2016-08-23T07:20:58.486Z,1016.93
2016-08-23T07:21:58.085Z,1016.95
2016-08-23T07:22:58.083Z,1016.93
2016-08-23T07:23:58.390Z,1016.91
2016-08-23T07:24:58.300Z,1016.88
2016-08-23T07:25:58.304Z,1016.94
2016-08-23T07:26:58.012Z,1016.94
2016-08-23T07:27:58.129Z,1016.94
2016-08-23T07:28:58.222Z,1016.93
2016-08-23T07:29:58.000Z,1016.88
2016-08-23T07:30:58.332Z,1016.91
2016-08-23T07:31:58.352Z,1016.95
2016-08-23T07:32:58.099Z,1016.94
2016-08-23T07:33:58.211Z,1016.94
2016-08-23T07:34:58.131Z,1016.96
2016-08-23T07:35:58.184Z,1016.96
2016-08-23T07:36:58.024Z,1016.89
2016-08-23T07:37:58.076Z,1016.89
2016-08-23T07:38:58.039Z,1016.88
2016-08-23T07:39:58.310Z,1016.9
2016-08-23T07:40:58.152Z,1016.86
2016-08-23T07:41:58.032Z,1016.84
2016-08-23T07:42:58.047Z,1016.85
2016-08-23T07:43:57.965Z,1016.88
2016-08-23T07:44:57.828Z,1016.94
2016-08-23T07:45:57.776Z,1016.94
2016-08-23T07:46:57.764Z,1016.92
2016-08-23T07:47:57.839Z,1016.94
2016-08-23T07:48:57.876Z,1016.94
2016-08-23T07:49:57.962Z,1016.89
2016-08-23T07:50:57.893Z,1016.95
2016-08-23T07:51:57.708Z,1016.93
2016-08-23T07:52:57.821Z,1017
2016-08-23T07:53:57.739Z,1016.98
2016-08-23T07:54:57.773Z,1016.94
2016-08-23T07:55:57.718Z,1016.99
2016-08-23T07:56:57.654Z,1016.95
2016-08-23T07:57:57.643Z,1016.98
2016-08-23T07:58:57.895Z,1016.98
2016-08-23T07:59:57.838Z,1017
2016-08-23T08:00:57.951Z,1016.97
2016-08-23T08:01:57.646Z,1016.98
2016-08-23T08:02:57.700Z,1017
2016-08-23T08:03:57.834Z,1016.95
2016-08-23T08:04:57.626Z,1016.93
2016-08-23T08:05:57.741Z,1016.95
2016-08-23T08:06:57.718Z,1017
2016-08-23T08:07:57.776Z,1016.99
2016-08-23T08:08:57.894Z,1017
2016-08-23T08:09:57.647Z,1016.99
2016-08-23T08:10:57.752Z,1017
2016-08-23T08:11:57.731Z,1016.99
2016-08-23T08:12:57.534Z,1017
2016-08-23T08:13:57.527Z,1016.99
2016-08-23T08:14:57.582Z,1016.99
2016-08-23T08:15:57.460Z,1016.99
2016-08-23T08:16:57.451Z,1017.01
2016-08-23T08:17:57.440Z,1016.98
2016-08-23T08:18:57.430Z,1017.01
2016-08-23T08:19:57.418Z,1016.95
2016-08-23T08:20:57.463Z,1016.95
2016-08-23T08:21:57.396Z,1016.92
2016-08-23T08:22:57.385Z,1016.94
2016-08-23T08:23:57.371Z,1016.91
2016-08-23T08:24:57.360Z,1016.91
2016-08-23T08:25:57.392Z,1016.86
2016-08-23T08:26:57.439Z,1016.84
2016-08-23T08:27:57.322Z,1016.84
2016-08-23T08:28:57.332Z,1016.8
2016-08-23T08:29:57.299Z,1016.82
2016-08-23T08:30:57.337Z,1016.87
2016-08-23T08:31:57.274Z,1016.83
2016-08-23T08:32:57.524Z,1016.84
2016-08-23T08:33:57.246Z,1016.81
2016-08-23T08:34:57.686Z,1016.86
2016-08-23T08:35:57.220Z,1016.81
2016-08-23T08:36:57.364Z,1016.85
2016-08-23T08:37:57.243Z,1016.84
2016-08-23T08:38:57.179Z,1016.8
2016-08-23T08:39:57.166Z,1016.8
2016-08-23T08:40:57.227Z,1016.86
2016-08-23T08:41:57.140Z,1016.83
2016-08-23T08:42:57.128Z,1016.86
2016-08-23T08:43:57.188Z,1016.86
2016-08-23T08:44:57.104Z,1016.88
2016-08-23T08:45:57.306Z,1016.87
2016-08-23T08:46:57.254Z,1016.87
2016-08-23T08:47:57.069Z,1016.86
2016-08-23T08:48:57.098Z,1016.84
2016-08-23T08:49:57.446Z,1016.8
2016-08-23T08:50:57.053Z,1016.87
2016-08-23T08:51:57.025Z,1016.86
2016-08-23T08:52:57.277Z,1016.81
2016-08-23T08:53:57.433Z,1016.85
2016-08-23T08:54:57.152Z,1016.82
2016-08-23T08:55:56.982Z,1016.83
2016-08-23T08:56:57.156Z,1016.83
2016-08-23T08:57:56.959Z,1016.86
2016-08-23T08:58:57.170Z,1016.85
2016-08-23T08:59:57.154Z,1016.84
2016-08-23T09:00:57.160Z,1016.84
2016-08-23T09:01:57.251Z,1016.84
2016-08-23T09:02:56.907Z,1016.84
2016-08-23T09:03:56.893Z,1016.83
2016-08-23T09:04:56.991Z,1016.85
2016-08-23T09:05:56.871Z,1016.83
2016-08-23T09:06:56.859Z,1016.82
2016-08-23T09:07:56.846Z,1016.83
2016-08-23T09:08:56.842Z,1016.81
2016-08-23T09:09:57.012Z,1016.77
2016-08-23T09:10:56.979Z,1016.8
2016-08-23T09:11:56.798Z,1016.81
2016-08-23T09:12:56.885Z,1016.82
2016-08-23T09:13:56.772Z,1016.83
2016-08-23T09:14:56.764Z,1016.82
2016-08-23T09:15:56.745Z,1016.77
2016-08-23T09:16:56.734Z,1016.74
2016-08-23T09:17:56.722Z,1016.72
2016-08-23T09:18:56.955Z,1016.71
2016-08-23T09:19:56.699Z,1016.75
2016-08-23T09:20:56.681Z,1016.75
2016-08-23T09:21:56.879Z,1016.75
2016-08-23T09:22:56.722Z,1016.77
2016-08-23T09:23:56.665Z,1016.72
2016-08-23T09:24:56.626Z,1016.68
2016-08-23T09:25:56.729Z,1016.74
2016-08-23T09:26:56.678Z,1016.74
2016-08-23T09:27:56.586Z,1016.76
2016-08-23T09:28:56.811Z,1016.75
2016-08-23T09:29:56.560Z,1016.79
2016-08-23T09:30:56.545Z,1016.72
2016-08-23T09:31:56.536Z,1016.73
2016-08-23T09:32:56.516Z,1016.73
2016-08-23T09:33:56.705Z,1016.73
2016-08-23T09:34:56.710Z,1016.67
2016-08-23T09:35:56.834Z,1016.67
2016-08-23T09:36:56.730Z,1016.68
2016-08-23T09:37:56.636Z,1016.7
2016-08-23T09:38:56.529Z,1016.7
2016-08-23T09:39:56.532Z,1016.67
2016-08-23T09:40:56.406Z,1016.79
2016-08-23T09:41:56.391Z,1016.75
2016-08-23T09:42:56.661Z,1016.77
2016-08-23T09:43:56.363Z,1016.76
2016-08-23T09:44:56.349Z,1016.76
2016-08-23T09:45:56.575Z,1016.76
2016-08-23T09:46:56.451Z,1016.74
2016-08-23T09:47:56.613Z,1016.76
2016-08-23T09:48:56.292Z,1016.77
2016-08-23T09:49:56.284Z,1016.73
2016-08-23T09:50:56.265Z,1016.71
2016-08-23T09:51:56.496Z,1016.73
2016-08-23T09:52:56.334Z,1016.7
2016-08-23T09:53:56.223Z,1016.72
2016-08-23T09:54:56.238Z,1016.71
2016-08-23T09:55:56.195Z,1016.66
2016-08-23T09:56:56.180Z,1016.66
2016-08-23T09:57:56.166Z,1016.66
2016-08-23T09:58:56.183Z,1016.68
2016-08-23T09:59:56.297Z,1016.63
2016-08-23T10:00:56.123Z,1016.67
2016-08-23T10:01:56.108Z,1016.69
2016-08-23T10:02:56.432Z,1016.69
2016-08-23T10:03:56.160Z,1016.69
2016-08-23T10:04:56.246Z,1016.68
2016-08-23T10:05:56.069Z,1016.62
2016-08-23T10:06:56.037Z,1016.65
2016-08-23T10:07:56.077Z,1016.62
2016-08-23T10:08:56.372Z,1016.6
2016-08-23T10:09:56.171Z,1016.64
2016-08-23T10:10:56.046Z,1016.56
2016-08-23T10:11:56.020Z,1016.66
2016-08-23T10:12:55.951Z,1016.53
2016-08-23T10:13:56.030Z,1016.55
2016-08-23T10:14:55.922Z,1016.48
2016-08-23T10:15:55.968Z,1016.46
2016-08-23T10:16:56.067Z,1016.49
2016-08-23T10:17:55.933Z,1016.44
2016-08-23T10:18:56.021Z,1016.45
2016-08-23T10:19:55.853Z,1016.46
2016-08-23T10:20:55.838Z,1016.42
2016-08-23T10:21:55.823Z,1016.44
2016-08-23T10:22:55.810Z,1016.43
2016-08-23T10:23:55.901Z,1016.4
2016-08-23T10:24:55.781Z,1016.42
2016-08-23T10:25:56.135Z,1016.45
2016-08-23T10:26:55.934Z,1016.44
2016-08-23T10:27:55.738Z,1016.41
2016-08-23T10:28:56.091Z,1016.45
2016-08-23T10:29:55.829Z,1016.43
2016-08-23T10:30:55.957Z,1016.41
2016-08-23T10:31:55.734Z,1016.43
2016-08-23T10:32:55.669Z,1016.39
2016-08-23T10:33:55.751Z,1016.46
2016-08-23T10:34:56.030Z,1016.39
2016-08-23T10:35:55.869Z,1016.4
2016-08-23T10:36:55.843Z,1016.43
2016-08-23T10:37:55.672Z,1016.37
2016-08-23T10:38:55.695Z,1016.38
2016-08-23T10:39:55.687Z,1016.42
2016-08-23T10:40:55.557Z,1016.33
2016-08-23T10:41:55.548Z,1016.31
2016-08-23T10:42:55.529Z,1016.3
2016-08-23T10:43:55.518Z,1016.26
2016-08-23T10:44:55.509Z,1016.3
2016-08-23T10:45:55.488Z,1016.27
2016-08-23T10:46:55.492Z,1016.24
2016-08-23T10:47:55.460Z,1016.23
2016-08-23T10:48:55.542Z,1016.21
2016-08-23T10:49:55.432Z,1016.2
2016-08-23T10:50:55.571Z,1016.15
2016-08-23T10:51:55.453Z,1016.14
2016-08-23T10:52:55.392Z,1016.13
2016-08-23T10:53:55.376Z,1016.12
2016-08-23T10:54:55.657Z,1016.12
2016-08-23T10:55:55.626Z,1016.11
2016-08-23T10:56:55.337Z,1016.13
2016-08-23T10:57:55.322Z,1016.09
2016-08-23T10:58:55.460Z,1016.05
2016-08-23T10:59:55.296Z,1016.06
2016-08-23T11:00:55.281Z,1016.11
2016-08-23T11:01:55.433Z,1016.13
2016-08-23T11:02:55.264Z,1016.09
2016-08-23T11:03:55.242Z,1016.05
2016-08-23T11:04:55.228Z,1016.14
2016-08-23T11:05:55.213Z,1016.04
2016-08-23T11:06:55.229Z,1016.03
2016-08-23T11:07:55.187Z,1016.06
2016-08-23T11:08:55.177Z,1016.09
2016-08-23T11:09:55.161Z,1016.02
2016-08-23T11:10:55.146Z,1016.03
2016-08-23T11:11:55.133Z,1016.01
2016-08-23T11:12:55.235Z,1016.02
2016-08-23T11:13:55.389Z,1016.02
2016-08-23T11:14:55.092Z,1016.01
2016-08-23T11:15:55.079Z,1016.03
2016-08-23T11:16:55.065Z,1015.98
2016-08-23T11:17:55.054Z,1015.98
2016-08-23T11:18:55.093Z,1015.99
2016-08-23T11:19:55.089Z,1015.93
2016-08-23T11:20:55.113Z,1015.93
2016-08-23T11:21:55.001Z,1015.94
2016-08-23T11:22:54.985Z,1015.91
2016-08-23T11:23:54.972Z,1015.98
2016-08-23T11:24:54.958Z,1015.96
2016-08-23T11:25:55.110Z,1015.99
2016-08-23T11:26:54.933Z,1015.96
2016-08-23T11:27:54.919Z,1015.95
2016-08-23T11:28:54.908Z,1015.89
2016-08-23T11:29:54.892Z,1015.86
2016-08-23T11:30:54.879Z,1015.92
2016-08-23T11:31:54.867Z,1015.91
2016-08-23T11:32:54.855Z,1015.85
2016-08-23T11:33:54.840Z,1015.89
2016-08-23T11:34:54.828Z,1015.9
2016-08-23T11:35:54.815Z,1015.85
2016-08-23T11:36:54.801Z,1015.85
2016-08-23T11:37:54.800Z,1015.88
2016-08-23T11:38:54.776Z,1015.89
2016-08-23T11:39:54.763Z,1015.89
2016-08-23T11:40:54.850Z,1015.85
2016-08-23T11:41:54.738Z,1015.84
2016-08-23T11:42:54.818Z,1015.84
2016-08-23T11:43:54.712Z,1015.82
2016-08-23T11:44:54.708Z,1015.81
2016-08-23T11:45:54.687Z,1015.81
2016-08-23T11:46:54.766Z,1015.81
2016-08-23T11:47:54.698Z,1015.74
2016-08-23T11:48:54.648Z,1015.72
2016-08-23T11:49:54.755Z,1015.8
2016-08-23T11:50:54.794Z,1015.81
2016-08-23T11:51:54.608Z,1015.83
2016-08-23T11:52:54.598Z,1015.77
2016-08-23T11:53:54.584Z,1015.83
2016-08-23T11:54:54.701Z,1015.87
2016-08-23T11:55:54.857Z,1015.8
2016-08-23T11:56:54.564Z,1015.76
2016-08-23T11:57:54.532Z,1015.79
2016-08-23T11:58:54.589Z,1015.77
2016-08-23T11:59:54.509Z,1015.77
2016-08-23T12:00:54.513Z,1015.81
2016-08-23T12:01:54.484Z,1015.8
2016-08-23T12:02:54.471Z,1015.78
2016-08-23T12:03:54.553Z,1015.79
2016-08-23T12:04:54.549Z,1015.8
2016-08-23T12:05:54.433Z,1015.8
2016-08-23T12:06:54.419Z,1015.76
2016-08-23T12:07:54.407Z,1015.74